LOT2122 EPWA-EDDC
Flight info
| Callsign | LOT2122 |
|---|---|
| Flight time | N/A |
| Altitude | 32000 |
| Route | LOLSI T174 LATAG DCT OSKAN EDDC/04 |
| Aircraft | B38M/M-SDE1FGHILORVWXY/HB1 |
Departure
| Time | 2026-04-30 12:56 |
|---|---|
| Airport | Warsaw Chopin Airport (EPWA) |
Arrival
| Time | N/A |
|---|---|
| Airport | Dresden Airport (EDDC) |
| Time | Latitude | Longitude | Altitude | Speed | Heading |
|---|---|---|---|---|---|
| 2026-04-30 12:42 | 52.16877 | 20.97237 | 361 ft | 0 kts | 75° |
| 2026-04-30 12:49 | 52.16872 | 20.97185 | 363 ft | 4 kts | 91° |
| 2026-04-30 12:49 | 52.16875 | 20.97141 | 362 ft | 4 kts | 105° |
| 2026-04-30 12:50 | 52.16881 | 20.97114 | 361 ft | 4 kts | 115° |
| 2026-04-30 12:50 | 52.16895 | 20.97077 | 363 ft | 4 kts | 130° |
| 2026-04-30 12:50 | 52.16914 | 20.97048 | 359 ft | 3 kts | 149° |
| 2026-04-30 12:50 | 52.16917 | 20.97045 | 359 ft | 2 kts | 150° |
| 2026-04-30 12:53 | 52.16913 | 20.97050 | 359 ft | 2 kts | 150° |
| 2026-04-30 12:53 | 52.16892 | 20.97069 | 363 ft | 7 kts | 150° |
| 2026-04-30 12:53 | 52.16797 | 20.97155 | 356 ft | 24 kts | 151° |
| 2026-04-30 12:53 | 52.16600 | 20.97334 | 361 ft | 40 kts | 143° |
| 2026-04-30 12:54 | 52.16459 | 20.97780 | 355 ft | 49 kts | 116° |
| 2026-04-30 12:54 | 52.16320 | 20.98279 | 359 ft | 42 kts | 114° |
| 2026-04-30 12:54 | 52.16211 | 20.98457 | 354 ft | 22 kts | 207° |
| 2026-04-30 12:54 | 52.16127 | 20.98304 | 355 ft | 4 kts | 290° |
| 2026-04-30 12:55 | 52.16140 | 20.98261 | 362 ft | 0 kts | 295° |
| 2026-04-30 12:55 | 52.16153 | 20.98214 | 356 ft | 29 kts | 295° |
| 2026-04-30 12:55 | 52.16366 | 20.97475 | 357 ft | 113 kts | 292° |
| 2026-04-30 12:55 | 52.16786 | 20.95979 | 474 ft | 167 kts | 296° |
| 2026-04-30 12:56 | 52.17272 | 20.94198 | 1335 ft | 185 kts | 296° |
| 2026-04-30 12:56 | 52.17803 | 20.92126 | 2135 ft | 211 kts | 295° |
| 2026-04-30 12:56 | 52.18317 | 20.89751 | 3065 ft | 234 kts | 285° |
| 2026-04-30 12:56 | 52.18422 | 20.87005 | 4059 ft | 256 kts | 264° |
| 2026-04-30 12:57 | 52.18083 | 20.84096 | 5228 ft | 263 kts | 270° |
| 2026-04-30 12:57 | 52.18321 | 20.81152 | 6399 ft | 264 kts | 287° |
| 2026-04-30 12:57 | 52.18722 | 20.78196 | 7556 ft | 270 kts | 286° |
| 2026-04-30 12:57 | 52.19128 | 20.75173 | 8481 ft | 277 kts | 287° |
| 2026-04-30 12:58 | 52.19528 | 20.72112 | 9420 ft | 283 kts | 282° |
| 2026-04-30 12:58 | 52.19379 | 20.68859 | 10344 ft | 295 kts | 257° |
| 2026-04-30 12:58 | 52.18689 | 20.65633 | 11016 ft | 309 kts | 255° |
| 2026-04-30 12:58 | 52.17954 | 20.62215 | 11439 ft | 329 kts | 254° |
| 2026-04-30 12:59 | 52.17168 | 20.58617 | 11960 ft | 344 kts | 254° |
| 2026-04-30 12:59 | 52.16347 | 20.54899 | 12668 ft | 351 kts | 254° |
| 2026-04-30 12:59 | 52.15562 | 20.51106 | 13458 ft | 354 kts | 262° |
| 2026-04-30 12:59 | 52.15444 | 20.47153 | 14222 ft | 349 kts | 280° |
| 2026-04-30 13:00 | 52.15597 | 20.43166 | 14868 ft | 357 kts | 279° |
| 2026-04-30 13:00 | 52.15745 | 20.39156 | 15547 ft | 360 kts | 279° |
| 2026-04-30 13:00 | 52.15904 | 20.35060 | 16226 ft | 365 kts | 279° |
| 2026-04-30 13:00 | 52.16069 | 20.30895 | 16904 ft | 369 kts | 280° |
| 2026-04-30 13:01 | 52.16236 | 20.26700 | 17579 ft | 373 kts | 280° |
| 2026-04-30 13:01 | 52.16405 | 20.22453 | 18237 ft | 377 kts | 280° |
| 2026-04-30 13:01 | 52.16574 | 20.18159 | 18849 ft | 382 kts | 280° |
| 2026-04-30 13:01 | 52.16742 | 20.13868 | 19383 ft | 386 kts | 280° |
| 2026-04-30 13:02 | 52.16934 | 20.09453 | 19218 ft | 388 kts | 281° |
| 2026-04-30 13:02 | 52.17105 | 20.05257 | 20006 ft | 358 kts | 281° |
| 2026-04-30 13:02 | 52.17220 | 20.01250 | 21125 ft | 348 kts | 281° |
| 2026-04-30 13:02 | 52.17281 | 19.97515 | 22647 ft | 314 kts | 281° |
| 2026-04-30 13:03 | 52.17300 | 19.93992 | 23340 ft | 315 kts | 281° |
| 2026-04-30 13:03 | 52.17320 | 19.90357 | 23518 ft | 325 kts | 281° |
| 2026-04-30 13:03 | 52.17342 | 19.86641 | 23883 ft | 329 kts | 281° |
| 2026-04-30 13:03 | 52.17363 | 19.82886 | 24247 ft | 332 kts | 281° |
| 2026-04-30 13:04 | 52.17376 | 19.79153 | 24590 ft | 335 kts | 281° |
| 2026-04-30 13:04 | 52.17380 | 19.75336 | 24932 ft | 338 kts | 281° |
| 2026-04-30 13:04 | 52.17376 | 19.71497 | 25282 ft | 340 kts | 281° |
| 2026-04-30 13:04 | 52.17287 | 19.67623 | 25624 ft | 349 kts | 269° |
| 2026-04-30 13:05 | 52.16571 | 19.63742 | 25955 ft | 362 kts | 255° |
| 2026-04-30 13:05 | 52.15757 | 19.59866 | 26141 ft | 364 kts | 265° |
| 2026-04-30 13:05 | 52.15179 | 19.55788 | 26156 ft | 374 kts | 267° |
| 2026-04-30 13:06 | 52.14216 | 19.47191 | 26236 ft | 397 kts | 269° |
| 2026-04-30 13:06 | 52.13777 | 19.42786 | 26570 ft | 399 kts | 270° |
| 2026-04-30 13:06 | 52.13346 | 19.38316 | 26965 ft | 400 kts | 270° |
| 2026-04-30 13:06 | 52.12923 | 19.33835 | 27403 ft | 399 kts | 270° |
| 2026-04-30 13:07 | 52.12505 | 19.29384 | 27913 ft | 395 kts | 271° |
| 2026-04-30 13:07 | 52.12089 | 19.24956 | 28243 ft | 398 kts | 271° |
| 2026-04-30 13:07 | 52.11668 | 19.20475 | 28454 ft | 403 kts | 271° |
| 2026-04-30 13:07 | 52.11238 | 19.15930 | 28688 ft | 408 kts | 271° |
| 2026-04-30 13:08 | 52.10802 | 19.11338 | 28924 ft | 412 kts | 271° |
| 2026-04-30 13:08 | 52.10368 | 19.06776 | 29206 ft | 415 kts | 271° |
| 2026-04-30 13:08 | 52.09924 | 19.02132 | 29532 ft | 416 kts | 271° |
| 2026-04-30 13:08 | 52.09477 | 18.97488 | 29810 ft | 417 kts | 271° |
| 2026-04-30 13:09 | 52.09027 | 18.92824 | 30209 ft | 415 kts | 271° |
| 2026-04-30 13:09 | 52.08579 | 18.88200 | 30583 ft | 414 kts | 271° |
| 2026-04-30 13:09 | 52.08128 | 18.83567 | 30809 ft | 415 kts | 271° |
| 2026-04-30 13:09 | 52.07674 | 18.78929 | 31051 ft | 416 kts | 271° |
| 2026-04-30 13:10 | 52.07218 | 18.74276 | 31273 ft | 417 kts | 271° |
| 2026-04-30 13:10 | 52.06757 | 18.69603 | 31506 ft | 418 kts | 271° |
| 2026-04-30 13:10 | 52.06295 | 18.64938 | 31754 ft | 418 kts | 271° |
| 2026-04-30 13:10 | 52.05831 | 18.60258 | 31892 ft | 421 kts | 270° |
| 2026-04-30 13:11 | 52.05365 | 18.55592 | 31992 ft | 426 kts | 270° |
| 2026-04-30 13:11 | 52.04887 | 18.50828 | 32260 ft | 425 kts | 270° |
| 2026-04-30 13:11 | 52.04408 | 18.46071 | 32448 ft | 427 kts | 270° |
| 2026-04-30 13:12 | 52.03426 | 18.36367 | 32426 ft | 442 kts | 270° |
| 2026-04-30 13:12 | 52.02413 | 18.26438 | 32430 ft | 458 kts | 269° |
| 2026-04-30 13:13 | 52.01342 | 18.16061 | 32426 ft | 474 kts | 269° |
| 2026-04-30 13:13 | 52.00789 | 18.10725 | 32423 ft | 482 kts | 269° |
| 2026-04-30 13:13 | 51.99643 | 17.99842 | 32433 ft | 496 kts | 268° |
| 2026-04-30 13:14 | 51.99017 | 17.94337 | 32430 ft | 497 kts | 267° |
| 2026-04-30 13:14 | 51.97149 | 17.77832 | 32437 ft | 495 kts | 267° |
| 2026-04-30 13:15 | 51.95272 | 17.61476 | 32430 ft | 496 kts | 267° |
| 2026-04-30 13:16 | 51.93982 | 17.50460 | 32435 ft | 496 kts | 267° |
| 2026-04-30 13:16 | 51.92700 | 17.39469 | 32427 ft | 496 kts | 267° |
| 2026-04-30 13:17 | 51.90796 | 17.22996 | 32434 ft | 495 kts | 267° |
| 2026-04-30 13:18 | 51.88921 | 17.06592 | 32426 ft | 495 kts | 267° |
| 2026-04-30 13:18 | 51.87030 | 16.90024 | 32645 ft | 504 kts | 267° |
| 2026-04-30 13:19 | 51.86394 | 16.84429 | 32924 ft | 505 kts | 266° |
| 2026-04-30 13:19 | 51.85767 | 16.78809 | 32506 ft | 506 kts | 267° |
| 2026-04-30 13:19 | 51.85147 | 16.73230 | 32321 ft | 503 kts | 266° |
| 2026-04-30 13:19 | 51.84536 | 16.67729 | 32643 ft | 502 kts | 266° |